sensor_id;sensor_type;location;lat;lon;timestamp;P1;durP1;ratioP1;P2;durP2;ratioP2
19057;SDS011;9662;53.612;9.914;2022-09-27T00:00:59;1.60;;;1.60;;
19057;SDS011;9662;53.612;9.914;2022-09-27T00:03:27;4.00;;;1.80;;
19057;SDS011;9662;53.612;9.914;2022-09-27T00:06:01;1.52;;;1.52;;
19057;SDS011;9662;53.612;9.914;2022-09-27T00:08:30;1.58;;;1.50;;
19057;SDS011;9662;53.612;9.914;2022-09-27T00:10:58;1.80;;;1.50;;
19057;SDS011;9662;53.612;9.914;2022-09-27T00:13:25;1.40;;;1.40;;
19057;SDS011;9662;53.612;9.914;2022-09-27T00:15:57;1.70;;;1.65;;
19057;SDS011;9662;53.612;9.914;2022-09-27T00:18:25;6.70;;;2.05;;
19057;SDS011;9662;53.612;9.914;2022-09-27T00:20:52;1.90;;;1.80;;
19057;SDS011;9662;53.612;9.914;2022-09-27T00:23:19;1.55;;;1.50;;
19057;SDS011;9662;53.612;9.914;2022-09-27T00:25:55;1.73;;;1.73;;
19057;SDS011;9662;53.612;9.914;2022-09-27T00:28:22;1.77;;;1.70;;
19057;SDS011;9662;53.612;9.914;2022-09-27T00:30:49;1.90;;;1.80;;
19057;SDS011;9662;53.612;9.914;2022-09-27T00:33:18;1.60;;;1.60;;
19057;SDS011;9662;53.612;9.914;2022-09-27T00:35:45;1.58;;;1.48;;
19057;SDS011;9662;53.612;9.914;2022-09-27T00:38:12;5.80;;;1.67;;
19057;SDS011;9662;53.612;9.914;2022-09-27T00:40:39;2.08;;;1.80;;
19057;SDS011;9662;53.612;9.914;2022-09-27T00:43:10;1.80;;;1.70;;
19057;SDS011;9662;53.612;9.914;2022-09-27T00:45:41;1.60;;;1.50;;
19057;SDS011;9662;53.612;9.914;2022-09-27T00:48:10;1.70;;;1.70;;
19057;SDS011;9662;53.612;9.914;2022-09-27T00:50:41;1.95;;;1.85;;
19057;SDS011;9662;53.612;9.914;2022-09-27T00:53:13;6.78;;;1.85;;
19057;SDS011;9662;53.612;9.914;2022-09-27T00:55:44;1.40;;;1.40;;
19057;SDS011;9662;53.612;9.914;2022-09-27T00:58:16;1.65;;;1.55;;
19057;SDS011;9662;53.612;9.914;2022-09-27T01:00:47;1.30;;;1.30;;
19057;SDS011;9662;53.612;9.914;2022-09-27T01:03:21;1.23;;;1.23;;
19057;SDS011;9662;53.612;9.914;2022-09-27T01:05:55;5.83;;;1.70;;
19057;SDS011;9662;53.612;9.914;2022-09-27T01:08:24;5.20;;;1.50;;
19057;SDS011;9662;53.612;9.914;2022-09-27T01:10:53;1.38;;;1.38;;
19057;SDS011;9662;53.612;9.914;2022-09-27T01:13:33;1.50;;;1.40;;
19057;SDS011;9662;53.612;9.914;2022-09-27T01:16:09;1.48;;;1.38;;
19057;SDS011;9662;53.612;9.914;2022-09-27T01:18:46;1.30;;;1.30;;
19057;SDS011;9662;53.612;9.914;2022-09-27T01:21:37;3.40;;;1.50;;
19057;SDS011;9662;53.612;9.914;2022-09-27T01:24:13;2.10;;;1.50;;
19057;SDS011;9662;53.612;9.914;2022-09-27T01:29:48;2.20;;;1.20;;
19057;SDS011;9662;53.612;9.914;2022-09-27T01:32:29;2.30;;;1.48;;
19057;SDS011;9662;53.612;9.914;2022-09-27T01:35:01;3.90;;;1.40;;
19057;SDS011;9662;53.612;9.914;2022-09-27T01:37:34;11.77;;;2.03;;
19057;SDS011;9662;53.612;9.914;2022-09-27T01:40:06;4.28;;;1.70;;
19057;SDS011;9662;53.612;9.914;2022-09-27T01:42:44;1.60;;;1.60;;
19057;SDS011;9662;53.612;9.914;2022-09-27T01:45:16;1.33;;;1.33;;
19057;SDS011;9662;53.612;9.914;2022-09-27T01:47:50;1.47;;;1.47;;
19057;SDS011;9662;53.612;9.914;2022-09-27T01:50:20;1.30;;;1.30;;
19057;SDS011;9662;53.612;9.914;2022-09-27T01:52:52;1.70;;;1.60;;
19057;SDS011;9662;53.612;9.914;2022-09-27T01:55:24;8.30;;;1.48;;
19057;SDS011;9662;53.612;9.914;2022-09-27T01:57:57;2.10;;;1.40;;
19057;SDS011;9662;53.612;9.914;2022-09-27T02:00:29;1.20;;;1.20;;
19057;SDS011;9662;53.612;9.914;2022-09-27T02:02:58;1.55;;;1.55;;
19057;SDS011;9662;53.612;9.914;2022-09-27T02:05:32;3.60;;;1.50;;
19057;SDS011;9662;53.612;9.914;2022-09-27T02:08:03;1.40;;;1.40;;
19057;SDS011;9662;53.612;9.914;2022-09-27T02:10:35;1.90;;;1.58;;
19057;SDS011;9662;53.612;9.914;2022-09-27T02:13:07;4.40;;;1.70;;
19057;SDS011;9662;53.612;9.914;2022-09-27T02:15:43;3.50;;;1.63;;
19057;SDS011;9662;53.612;9.914;2022-09-27T02:18:20;1.40;;;1.40;;
19057;SDS011;9662;53.612;9.914;2022-09-27T02:20:54;1.60;;;1.60;;
19057;SDS011;9662;53.612;9.914;2022-09-27T02:23:24;1.50;;;1.50;;
19057;SDS011;9662;53.612;9.914;2022-09-27T02:25:58;1.37;;;1.37;;
19057;SDS011;9662;53.612;9.914;2022-09-27T02:28:29;5.95;;;1.60;;
19057;SDS011;9662;53.612;9.914;2022-09-27T02:31:01;7.50;;;1.35;;
19057;SDS011;9662;53.612;9.914;2022-09-27T02:33:30;1.50;;;1.50;;
19057;SDS011;9662;53.612;9.914;2022-09-27T02:36:01;1.60;;;1.60;;
19057;SDS011;9662;53.612;9.914;2022-09-27T02:38:28;1.70;;;1.70;;
19057;SDS011;9662;53.612;9.914;2022-09-27T02:40:55;1.10;;;1.10;;
19057;SDS011;9662;53.612;9.914;2022-09-27T02:43:22;7.82;;;1.63;;
19057;SDS011;9662;53.612;9.914;2022-09-27T02:45:55;1.55;;;1.40;;
19057;SDS011;9662;53.612;9.914;2022-09-27T02:48:31;1.33;;;1.33;;
19057;SDS011;9662;53.612;9.914;2022-09-27T02:51:12;1.42;;;1.42;;
19057;SDS011;9662;53.612;9.914;2022-09-27T02:54:00;5.00;;;1.45;;
19057;SDS011;9662;53.612;9.914;2022-09-27T02:56:35;4.40;;;1.38;;
19057;SDS011;9662;53.612;9.914;2022-09-27T02:59:11;1.58;;;1.48;;
19057;SDS011;9662;53.612;9.914;2022-09-27T03:01:47;4.05;;;1.30;;
19057;SDS011;9662;53.612;9.914;2022-09-27T03:04:24;1.33;;;1.33;;
19057;SDS011;9662;53.612;9.914;2022-09-27T03:06:58;1.20;;;1.20;;
19057;SDS011;9662;53.612;9.914;2022-09-27T03:09:27;1.20;;;1.20;;
19057;SDS011;9662;53.612;9.914;2022-09-27T03:11:55;3.75;;;1.30;;
19057;SDS011;9662;53.612;9.914;2022-09-27T03:14:22;9.80;;;1.60;;
19057;SDS011;9662;53.612;9.914;2022-09-27T03:16:49;1.50;;;1.40;;
19057;SDS011;9662;53.612;9.914;2022-09-27T03:19:15;1.30;;;1.30;;
19057;SDS011;9662;53.612;9.914;2022-09-27T03:21:44;1.73;;;1.65;;
19057;SDS011;9662;53.612;9.914;2022-09-27T03:24:10;1.30;;;1.30;;
19057;SDS011;9662;53.612;9.914;2022-09-27T03:26:37;1.50;;;1.50;;
19057;SDS011;9662;53.612;9.914;2022-09-27T03:29:04;6.77;;;1.60;;
19057;SDS011;9662;53.612;9.914;2022-09-27T03:31:31;1.60;;;1.60;;
19057;SDS011;9662;53.612;9.914;2022-09-27T03:33:58;1.50;;;1.50;;
19057;SDS011;9662;53.612;9.914;2022-09-27T03:36:25;1.17;;;1.17;;
19057;SDS011;9662;53.612;9.914;2022-09-27T03:38:53;1.35;;;1.35;;
19057;SDS011;9662;53.612;9.914;2022-09-27T03:41:20;1.55;;;1.20;;
19057;SDS011;9662;53.612;9.914;2022-09-27T03:43:47;1.80;;;1.27;;
19057;SDS011;9662;53.612;9.914;2022-09-27T03:46:14;1.20;;;1.20;;
19057;SDS011;9662;53.612;9.914;2022-09-27T03:48:40;3.80;;;1.30;;
19057;SDS011;9662;53.612;9.914;2022-09-27T03:51:07;1.65;;;1.50;;
19057;SDS011;9662;53.612;9.914;2022-09-27T03:53:36;1.30;;;1.30;;
19057;SDS011;9662;53.612;9.914;2022-09-27T03:56:04;1.50;;;1.40;;
19057;SDS011;9662;53.612;9.914;2022-09-27T03:58:31;1.75;;;1.60;;
19057;SDS011;9662;53.612;9.914;2022-09-27T04:00:58;1.90;;;1.33;;
19057;SDS011;9662;53.612;9.914;2022-09-27T04:03:25;1.40;;;1.40;;
19057;SDS011;9662;53.612;9.914;2022-09-27T04:05:52;1.53;;;1.50;;
19057;SDS011;9662;53.612;9.914;2022-09-27T04:08:19;1.40;;;1.40;;
19057;SDS011;9662;53.612;9.914;2022-09-27T04:10:47;1.70;;;1.70;;
19057;SDS011;9662;53.612;9.914;2022-09-27T04:13:15;1.60;;;1.60;;
19057;SDS011;9662;53.612;9.914;2022-09-27T04:15:42;1.50;;;1.50;;
19057;SDS011;9662;53.612;9.914;2022-09-27T04:18:09;1.90;;;1.90;;
19057;SDS011;9662;53.612;9.914;2022-09-27T04:20:36;1.80;;;1.80;;
19057;SDS011;9662;53.612;9.914;2022-09-27T04:23:03;1.52;;;1.52;;
19057;SDS011;9662;53.612;9.914;2022-09-27T04:25:30;1.70;;;1.70;;
19057;SDS011;9662;53.612;9.914;2022-09-27T04:27:58;1.70;;;1.70;;
19057;SDS011;9662;53.612;9.914;2022-09-27T04:30:27;1.70;;;1.60;;
19057;SDS011;9662;53.612;9.914;2022-09-27T04:32:54;1.80;;;1.70;;
19057;SDS011;9662;53.612;9.914;2022-09-27T04:35:21;1.58;;;1.58;;
19057;SDS011;9662;53.612;9.914;2022-09-27T04:38:05;2.90;;;1.73;;
19057;SDS011;9662;53.612;9.914;2022-09-27T04:40:32;1.70;;;1.70;;
19057;SDS011;9662;53.612;9.914;2022-09-27T04:43:00;2.90;;;2.03;;
19057;SDS011;9662;53.612;9.914;2022-09-27T04:45:29;2.10;;;2.10;;
19057;SDS011;9662;53.612;9.914;2022-09-27T04:47:56;1.73;;;1.73;;
19057;SDS011;9662;53.612;9.914;2022-09-27T04:50:23;2.25;;;2.25;;
19057;SDS011;9662;53.612;9.914;2022-09-27T04:52:50;2.20;;;2.20;;
19057;SDS011;9662;53.612;9.914;2022-09-27T04:55:17;2.50;;;2.40;;
19057;SDS011;9662;53.612;9.914;2022-09-27T04:57:45;3.03;;;2.80;;
19057;SDS011;9662;53.612;9.914;2022-09-27T05:00:12;3.00;;;2.90;;
19057;SDS011;9662;53.612;9.914;2022-09-27T05:02:42;3.00;;;2.80;;
19057;SDS011;9662;53.612;9.914;2022-09-27T05:05:09;3.30;;;3.20;;
19057;SDS011;9662;53.612;9.914;2022-09-27T05:07:36;3.65;;;3.45;;
19057;SDS011;9662;53.612;9.914;2022-09-27T05:10:04;3.83;;;3.63;;
19057;SDS011;9662;53.612;9.914;2022-09-27T05:12:31;3.60;;;3.50;;
19057;SDS011;9662;53.612;9.914;2022-09-27T05:14:59;4.00;;;3.90;;
19057;SDS011;9662;53.612;9.914;2022-09-27T05:17:25;5.95;;;3.95;;
19057;SDS011;9662;53.612;9.914;2022-09-27T05:19:54;3.40;;;3.20;;
19057;SDS011;9662;53.612;9.914;2022-09-27T05:22:21;3.72;;;3.63;;
19057;SDS011;9662;53.612;9.914;2022-09-27T05:24:47;4.18;;;3.92;;
19057;SDS011;9662;53.612;9.914;2022-09-27T05:27:15;3.63;;;3.53;;
19057;SDS011;9662;53.612;9.914;2022-09-27T05:29:44;5.05;;;3.42;;
19057;SDS011;9662;53.612;9.914;2022-09-27T05:32:11;3.85;;;3.65;;
19057;SDS011;9662;53.612;9.914;2022-09-27T05:34:38;4.05;;;3.80;;
19057;SDS011;9662;53.612;9.914;2022-09-27T05:37:07;4.18;;;4.03;;
19057;SDS011;9662;53.612;9.914;2022-09-27T05:39:34;4.78;;;4.57;;
19057;SDS011;9662;53.612;9.914;2022-09-27T05:42:00;4.57;;;4.37;;
19057;SDS011;9662;53.612;9.914;2022-09-27T05:44:29;4.43;;;4.13;;
19057;SDS011;9662;53.612;9.914;2022-09-27T05:46:56;4.20;;;4.00;;
19057;SDS011;9662;53.612;9.914;2022-09-27T05:49:25;4.07;;;3.92;;
19057;SDS011;9662;53.612;9.914;2022-09-27T05:51:52;4.38;;;4.20;;
19057;SDS011;9662;53.612;9.914;2022-09-27T05:54:21;5.72;;;5.30;;
19057;SDS011;9662;53.612;9.914;2022-09-27T05:56:48;5.85;;;5.45;;
19057;SDS011;9662;53.612;9.914;2022-09-27T05:59:15;6.20;;;5.60;;
19057;SDS011;9662;53.612;9.914;2022-09-27T06:01:42;9.02;;;6.55;;
19057;SDS011;9662;53.612;9.914;2022-09-27T06:04:08;6.97;;;6.38;;
19057;SDS011;9662;53.612;9.914;2022-09-27T06:06:35;7.40;;;6.78;;
19057;SDS011;9662;53.612;9.914;2022-09-27T06:09:02;8.82;;;7.47;;
19057;SDS011;9662;53.612;9.914;2022-09-27T06:11:30;16.23;;;9.23;;
19057;SDS011;9662;53.612;9.914;2022-09-27T06:13:57;13.87;;;9.10;;
19057;SDS011;9662;53.612;9.914;2022-09-27T06:16:24;10.90;;;7.90;;
19057;SDS011;9662;53.612;9.914;2022-09-27T06:18:51;7.90;;;7.10;;
19057;SDS011;9662;53.612;9.914;2022-09-27T06:21:18;7.87;;;7.20;;
19057;SDS011;9662;53.612;9.914;2022-09-27T06:23:45;7.90;;;6.93;;
19057;SDS011;9662;53.612;9.914;2022-09-27T06:26:11;12.68;;;7.25;;
19057;SDS011;9662;53.612;9.914;2022-09-27T06:28:39;8.88;;;6.13;;
19057;SDS011;9662;53.612;9.914;2022-09-27T06:31:07;10.18;;;6.75;;
19057;SDS011;9662;53.612;9.914;2022-09-27T06:33:35;9.20;;;6.17;;
19057;SDS011;9662;53.612;9.914;2022-09-27T06:36:02;6.00;;;5.40;;
19057;SDS011;9662;53.612;9.914;2022-09-27T06:38:30;5.65;;;5.32;;
19057;SDS011;9662;53.612;9.914;2022-09-27T06:40:59;5.47;;;4.97;;
19057;SDS011;9662;53.612;9.914;2022-09-27T06:43:27;5.65;;;5.25;;
19057;SDS011;9662;53.612;9.914;2022-09-27T06:45:57;4.78;;;4.47;;
19057;SDS011;9662;53.612;9.914;2022-09-27T06:48:27;4.97;;;4.70;;
19057;SDS011;9662;53.612;9.914;2022-09-27T06:50:54;4.82;;;4.35;;
19057;SDS011;9662;53.612;9.914;2022-09-27T06:53:22;4.53;;;4.10;;
19057;SDS011;9662;53.612;9.914;2022-09-27T06:55:49;2.95;;;2.75;;
19057;SDS011;9662;53.612;9.914;2022-09-27T06:58:17;3.47;;;3.17;;
19057;SDS011;9662;53.612;9.914;2022-09-27T07:01:02;3.50;;;2.83;;
19057;SDS011;9662;53.612;9.914;2022-09-27T07:03:29;5.25;;;3.00;;
19057;SDS011;9662;53.612;9.914;2022-09-27T07:05:58;2.30;;;2.30;;
19057;SDS011;9662;53.612;9.914;2022-09-27T07:08:26;2.33;;;2.17;;
19057;SDS011;9662;53.612;9.914;2022-09-27T07:10:54;2.28;;;2.17;;
19057;SDS011;9662;53.612;9.914;2022-09-27T07:13:21;2.92;;;2.28;;
19057;SDS011;9662;53.612;9.914;2022-09-27T07:15:48;2.63;;;2.40;;
19057;SDS011;9662;53.612;9.914;2022-09-27T07:18:16;2.30;;;2.20;;
19057;SDS011;9662;53.612;9.914;2022-09-27T07:20:44;2.70;;;2.50;;
19057;SDS011;9662;53.612;9.914;2022-09-27T07:23:11;1.95;;;1.70;;
19057;SDS011;9662;53.612;9.914;2022-09-27T07:25:39;1.45;;;1.40;;
19057;SDS011;9662;53.612;9.914;2022-09-27T07:28:08;1.70;;;1.60;;
19057;SDS011;9662;53.612;9.914;2022-09-27T07:30:39;1.60;;;1.40;;
19057;SDS011;9662;53.612;9.914;2022-09-27T07:33:06;1.20;;;1.20;;
19057;SDS011;9662;53.612;9.914;2022-09-27T07:35:37;1.35;;;1.25;;
19057;SDS011;9662;53.612;9.914;2022-09-27T07:38:05;1.30;;;1.00;;
19057;SDS011;9662;53.612;9.914;2022-09-27T07:40:35;1.33;;;1.33;;
19057;SDS011;9662;53.612;9.914;2022-09-27T07:43:02;1.25;;;1.25;;
19057;SDS011;9662;53.612;9.914;2022-09-27T07:45:29;6.10;;;1.30;;
19057;SDS011;9662;53.612;9.914;2022-09-27T07:47:56;1.33;;;1.33;;
19057;SDS011;9662;53.612;9.914;2022-09-27T07:50:23;1.73;;;1.30;;
19057;SDS011;9662;53.612;9.914;2022-09-27T07:52:54;1.30;;;1.30;;
19057;SDS011;9662;53.612;9.914;2022-09-27T07:55:21;3.67;;;1.50;;
19057;SDS011;9662;53.612;9.914;2022-09-27T07:57:48;1.33;;;1.33;;
19057;SDS011;9662;53.612;9.914;2022-09-27T08:00:16;2.08;;;1.75;;
19057;SDS011;9662;53.612;9.914;2022-09-27T08:02:44;2.00;;;1.90;;
19057;SDS011;9662;53.612;9.914;2022-09-27T08:05:11;2.10;;;1.63;;
19057;SDS011;9662;53.612;9.914;2022-09-27T08:07:39;1.83;;;1.73;;
19057;SDS011;9662;53.612;9.914;2022-09-27T08:10:07;2.85;;;1.95;;
19057;SDS011;9662;53.612;9.914;2022-09-27T08:12:35;1.90;;;1.23;;
19057;SDS011;9662;53.612;9.914;2022-09-27T08:15:02;1.30;;;1.20;;
19057;SDS011;9662;53.612;9.914;2022-09-27T08:17:29;3.17;;;1.45;;
19057;SDS011;9662;53.612;9.914;2022-09-27T08:19:57;3.67;;;1.70;;
19057;SDS011;9662;53.612;9.914;2022-09-27T08:22:26;1.23;;;1.23;;
19057;SDS011;9662;53.612;9.914;2022-09-27T08:24:53;1.30;;;1.20;;
19057;SDS011;9662;53.612;9.914;2022-09-27T08:27:21;1.23;;;1.23;;
19057;SDS011;9662;53.612;9.914;2022-09-27T08:29:48;1.95;;;1.25;;
19057;SDS011;9662;53.612;9.914;2022-09-27T08:32:15;2.03;;;1.00;;
19057;SDS011;9662;53.612;9.914;2022-09-27T08:34:43;1.92;;;1.00;;
19057;SDS011;9662;53.612;9.914;2022-09-27T08:37:09;1.20;;;1.00;;
19057;SDS011;9662;53.612;9.914;2022-09-27T08:39:36;1.35;;;1.23;;
19057;SDS011;9662;53.612;9.914;2022-09-27T08:42:05;2.40;;;1.30;;
19057;SDS011;9662;53.612;9.914;2022-09-27T08:44:45;1.35;;;1.20;;
19057;SDS011;9662;53.612;9.914;2022-09-27T08:47:20;2.85;;;1.80;;
19057;SDS011;9662;53.612;9.914;2022-09-27T08:49:51;1.50;;;1.40;;
19057;SDS011;9662;53.612;9.914;2022-09-27T08:52:21;1.60;;;1.50;;
19057;SDS011;9662;53.612;9.914;2022-09-27T08:54:53;5.82;;;1.58;;
19057;SDS011;9662;53.612;9.914;2022-09-27T08:57:22;1.40;;;1.40;;
19057;SDS011;9662;53.612;9.914;2022-09-27T08:59:53;1.70;;;1.40;;
19057;SDS011;9662;53.612;9.914;2022-09-27T09:02:26;2.30;;;1.08;;
19057;SDS011;9662;53.612;9.914;2022-09-27T09:04:53;1.33;;;1.30;;
19057;SDS011;9662;53.612;9.914;2022-09-27T09:07:31;1.75;;;1.10;;
19057;SDS011;9662;53.612;9.914;2022-09-27T09:10:21;5.40;;;1.20;;
19057;SDS011;9662;53.612;9.914;2022-09-27T09:13:18;1.20;;;1.20;;
19057;SDS011;9662;53.612;9.914;2022-09-27T09:16:02;1.30;;;1.30;;
19057;SDS011;9662;53.612;9.914;2022-09-27T09:18:39;1.40;;;1.10;;
19057;SDS011;9662;53.612;9.914;2022-09-27T09:21:20;1.27;;;1.27;;
19057;SDS011;9662;53.612;9.914;2022-09-27T09:24:06;1.60;;;1.55;;
19057;SDS011;9662;53.612;9.914;2022-09-27T09:26:44;1.25;;;1.25;;
19057;SDS011;9662;53.612;9.914;2022-09-27T09:29:23;1.42;;;1.33;;
19057;SDS011;9662;53.612;9.914;2022-09-27T09:32:09;1.30;;;1.20;;
19057;SDS011;9662;53.612;9.914;2022-09-27T09:34:45;1.52;;;1.42;;
19057;SDS011;9662;53.612;9.914;2022-09-27T09:37:17;1.40;;;1.40;;
19057;SDS011;9662;53.612;9.914;2022-09-27T09:39:49;2.13;;;1.92;;
19057;SDS011;9662;53.612;9.914;2022-09-27T09:42:21;1.40;;;1.30;;
19057;SDS011;9662;53.612;9.914;2022-09-27T09:44:54;1.60;;;1.50;;
19057;SDS011;9662;53.612;9.914;2022-09-27T09:47:30;1.20;;;1.20;;
19057;SDS011;9662;53.612;9.914;2022-09-27T09:50:03;1.23;;;1.23;;
19057;SDS011;9662;53.612;9.914;2022-09-27T09:52:39;1.13;;;1.02;;
19057;SDS011;9662;53.612;9.914;2022-09-27T09:55:14;1.25;;;1.17;;
19057;SDS011;9662;53.612;9.914;2022-09-27T09:57:47;1.10;;;1.10;;
19057;SDS011;9662;53.612;9.914;2022-09-27T10:00:21;1.20;;;1.10;;
19057;SDS011;9662;53.612;9.914;2022-09-27T10:02:50;5.20;;;3.08;;
19057;SDS011;9662;53.612;9.914;2022-09-27T10:05:20;1.50;;;1.50;;
19057;SDS011;9662;53.612;9.914;2022-09-27T10:07:49;1.33;;;1.33;;
19057;SDS011;9662;53.612;9.914;2022-09-27T10:10:19;1.20;;;1.20;;
19057;SDS011;9662;53.612;9.914;2022-09-27T10:12:46;1.13;;;1.13;;
19057;SDS011;9662;53.612;9.914;2022-09-27T10:15:15;1.20;;;1.20;;
19057;SDS011;9662;53.612;9.914;2022-09-27T10:17:44;0.90;;;0.90;;
19057;SDS011;9662;53.612;9.914;2022-09-27T10:20:18;1.20;;;1.20;;
19057;SDS011;9662;53.612;9.914;2022-09-27T10:22:56;1.00;;;1.00;;
19057;SDS011;9662;53.612;9.914;2022-09-27T10:25:35;1.00;;;1.00;;
19057;SDS011;9662;53.612;9.914;2022-09-27T10:28:24;2.38;;;1.17;;
19057;SDS011;9662;53.612;9.914;2022-09-27T10:30:58;0.98;;;0.98;;
19057;SDS011;9662;53.612;9.914;2022-09-27T10:33:28;0.85;;;0.85;;
19057;SDS011;9662;53.612;9.914;2022-09-27T10:35:57;1.38;;;1.30;;
19057;SDS011;9662;53.612;9.914;2022-09-27T10:38:26;1.13;;;1.13;;
19057;SDS011;9662;53.612;9.914;2022-09-27T10:40:55;1.45;;;1.35;;
19057;SDS011;9662;53.612;9.914;2022-09-27T10:43:25;2.00;;;1.30;;
19057;SDS011;9662;53.612;9.914;2022-09-27T10:46:04;1.38;;;1.38;;
19057;SDS011;9662;53.612;9.914;2022-09-27T10:48:35;1.40;;;1.30;;
19057;SDS011;9662;53.612;9.914;2022-09-27T10:51:16;1.10;;;1.05;;
19057;SDS011;9662;53.612;9.914;2022-09-27T10:53:48;2.40;;;1.10;;
19057;SDS011;9662;53.612;9.914;2022-09-27T10:56:19;2.07;;;1.10;;
19057;SDS011;9662;53.612;9.914;2022-09-27T10:58:48;0.90;;;0.90;;
19057;SDS011;9662;53.612;9.914;2022-09-27T11:01:15;1.10;;;1.10;;
19057;SDS011;9662;53.612;9.914;2022-09-27T11:03:45;1.00;;;0.90;;
19057;SDS011;9662;53.612;9.914;2022-09-27T11:06:19;0.98;;;0.98;;
19057;SDS011;9662;53.612;9.914;2022-09-27T11:08:52;1.45;;;1.35;;
19057;SDS011;9662;53.612;9.914;2022-09-27T11:11:23;1.30;;;1.20;;
19057;SDS011;9662;53.612;9.914;2022-09-27T11:13:56;1.40;;;1.30;;
19057;SDS011;9662;53.612;9.914;2022-09-27T11:16:35;1.20;;;1.20;;
19057;SDS011;9662;53.612;9.914;2022-09-27T11:19:24;1.10;;;1.10;;
19057;SDS011;9662;53.612;9.914;2022-09-27T11:22:11;1.10;;;1.10;;
19057;SDS011;9662;53.612;9.914;2022-09-27T11:24:56;1.08;;;1.08;;
19057;SDS011;9662;53.612;9.914;2022-09-27T11:27:39;1.55;;;0.93;;
19057;SDS011;9662;53.612;9.914;2022-09-27T11:30:16;1.70;;;1.40;;
19057;SDS011;9662;53.612;9.914;2022-09-27T11:32:52;1.85;;;1.00;;
19057;SDS011;9662;53.612;9.914;2022-09-27T11:35:39;0.82;;;0.82;;
19057;SDS011;9662;53.612;9.914;2022-09-27T11:38:19;3.00;;;1.00;;
19057;SDS011;9662;53.612;9.914;2022-09-27T11:41:05;1.35;;;1.02;;
19057;SDS011;9662;53.612;9.914;2022-09-27T11:43:54;1.10;;;1.10;;
19057;SDS011;9662;53.612;9.914;2022-09-27T11:46:35;1.50;;;1.40;;
19057;SDS011;9662;53.612;9.914;2022-09-27T11:49:16;1.17;;;0.88;;
19057;SDS011;9662;53.612;9.914;2022-09-27T11:52:09;1.20;;;1.10;;
19057;SDS011;9662;53.612;9.914;2022-09-27T11:57:46;1.30;;;1.20;;
19057;SDS011;9662;53.612;9.914;2022-09-27T12:00:17;1.20;;;1.10;;
19057;SDS011;9662;53.612;9.914;2022-09-27T12:03:14;1.23;;;1.20;;
19057;SDS011;9662;53.612;9.914;2022-09-27T12:06:05;2.00;;;1.13;;
19057;SDS011;9662;53.612;9.914;2022-09-27T12:11:25;1.47;;;0.90;;
19057;SDS011;9662;53.612;9.914;2022-09-27T12:13:56;1.20;;;1.20;;
19057;SDS011;9662;53.612;9.914;2022-09-27T12:16:25;1.10;;;1.10;;
19057;SDS011;9662;53.612;9.914;2022-09-27T12:18:53;0.90;;;0.82;;
19057;SDS011;9662;53.612;9.914;2022-09-27T12:21:21;0.93;;;0.93;;
19057;SDS011;9662;53.612;9.914;2022-09-27T12:23:49;1.10;;;1.00;;
19057;SDS011;9662;53.612;9.914;2022-09-27T12:26:22;2.45;;;1.13;;
19057;SDS011;9662;53.612;9.914;2022-09-27T12:28:55;1.00;;;1.00;;
19057;SDS011;9662;53.612;9.914;2022-09-27T12:31:28;1.00;;;1.00;;
19057;SDS011;9662;53.612;9.914;2022-09-27T12:34:05;1.50;;;1.00;;
19057;SDS011;9662;53.612;9.914;2022-09-27T12:36:40;1.00;;;1.00;;
19057;SDS011;9662;53.612;9.914;2022-09-27T12:39:13;14.82;;;2.38;;
19057;SDS011;9662;53.612;9.914;2022-09-27T12:41:45;83.15;;;7.50;;
19057;SDS011;9662;53.612;9.914;2022-09-27T12:44:16;49.55;;;4.95;;
19057;SDS011;9662;53.612;9.914;2022-09-27T12:46:46;57.35;;;6.50;;
19057;SDS011;9662;53.612;9.914;2022-09-27T12:49:22;58.67;;;7.57;;
19057;SDS011;9662;53.612;9.914;2022-09-27T12:51:58;6.00;;;1.85;;
19057;SDS011;9662;53.612;9.914;2022-09-27T12:54:37;25.38;;;3.30;;
19057;SDS011;9662;53.612;9.914;2022-09-27T12:57:38;20.30;;;2.95;;
19057;SDS011;9662;53.612;9.914;2022-09-27T13:00:16;48.90;;;5.78;;
19057;SDS011;9662;53.612;9.914;2022-09-27T13:02:54;244.30;;;20.23;;
19057;SDS011;9662;53.612;9.914;2022-09-27T13:08:49;92.93;;;9.73;;
19057;SDS011;9662;53.612;9.914;2022-09-27T13:11:27;62.22;;;6.30;;
19057;SDS011;9662;53.612;9.914;2022-09-27T13:14:03;128.63;;;12.60;;
19057;SDS011;9662;53.612;9.914;2022-09-27T13:16:30;75.32;;;8.35;;
19057;SDS011;9662;53.612;9.914;2022-09-27T13:19:13;32.50;;;3.22;;
19057;SDS011;9662;53.612;9.914;2022-09-27T13:22:02;41.28;;;4.10;;
19057;SDS011;9662;53.612;9.914;2022-09-27T13:33:32;12.70;;;2.75;;
19057;SDS011;9662;53.612;9.914;2022-09-27T13:36:12;104.32;;;9.80;;
19057;SDS011;9662;53.612;9.914;2022-09-27T13:38:52;20.75;;;3.33;;
19057;SDS011;9662;53.612;9.914;2022-09-27T13:41:25;105.43;;;7.65;;
19057;SDS011;9662;53.612;9.914;2022-09-27T13:43:58;65.18;;;5.88;;
19057;SDS011;9662;53.612;9.914;2022-09-27T13:46:32;77.60;;;8.73;;
19057;SDS011;9662;53.612;9.914;2022-09-27T13:49:03;37.63;;;3.92;;
19057;SDS011;9662;53.612;9.914;2022-09-27T13:51:40;9.02;;;2.38;;
19057;SDS011;9662;53.612;9.914;2022-09-27T13:57:37;115.90;;;12.20;;
19057;SDS011;9662;53.612;9.914;2022-09-27T14:00:09;43.58;;;5.53;;
19057;SDS011;9662;53.612;9.914;2022-09-27T14:02:38;1.58;;;0.80;;
19057;SDS011;9662;53.612;9.914;2022-09-27T14:05:16;1.92;;;1.15;;
19057;SDS011;9662;53.612;9.914;2022-09-27T14:07:48;1.43;;;0.87;;
19057;SDS011;9662;53.612;9.914;2022-09-27T14:10:18;2.22;;;1.33;;
19057;SDS011;9662;53.612;9.914;2022-09-27T14:12:47;8.10;;;1.30;;
19057;SDS011;9662;53.612;9.914;2022-09-27T14:15:16;2.10;;;1.00;;
19057;SDS011;9662;53.612;9.914;2022-09-27T14:17:45;2.13;;;1.05;;
19057;SDS011;9662;53.612;9.914;2022-09-27T14:23:00;1.40;;;1.40;;
19057;SDS011;9662;53.612;9.914;2022-09-27T14:25:27;1.60;;;1.13;;
19057;SDS011;9662;53.612;9.914;2022-09-27T14:27:54;1.17;;;1.13;;
19057;SDS011;9662;53.612;9.914;2022-09-27T14:30:23;0.70;;;0.70;;
19057;SDS011;9662;53.612;9.914;2022-09-27T14:32:52;0.90;;;0.90;;
19057;SDS011;9662;53.612;9.914;2022-09-27T14:35:22;1.00;;;0.80;;
19057;SDS011;9662;53.612;9.914;2022-09-27T14:38:10;5.00;;;1.35;;
19057;SDS011;9662;53.612;9.914;2022-09-27T14:40:39;78.85;;;8.07;;
19057;SDS011;9662;53.612;9.914;2022-09-27T14:43:09;32.58;;;4.25;;
19057;SDS011;9662;53.612;9.914;2022-09-27T14:45:41;18.13;;;3.10;;
19057;SDS011;9662;53.612;9.914;2022-09-27T14:48:16;11.85;;;1.55;;
19057;SDS011;9662;53.612;9.914;2022-09-27T14:50:53;5.93;;;2.03;;
19057;SDS011;9662;53.612;9.914;2022-09-27T14:53:26;21.25;;;2.88;;
19057;SDS011;9662;53.612;9.914;2022-09-27T14:55:54;6.32;;;1.80;;
19057;SDS011;9662;53.612;9.914;2022-09-27T14:58:22;39.70;;;7.40;;
19057;SDS011;9662;53.612;9.914;2022-09-27T15:00:50;8.35;;;2.17;;
19057;SDS011;9662;53.612;9.914;2022-09-27T15:03:18;31.25;;;4.55;;
19057;SDS011;9662;53.612;9.914;2022-09-27T15:05:50;1.27;;;1.27;;
19057;SDS011;9662;53.612;9.914;2022-09-27T15:08:18;1.08;;;1.08;;
19057;SDS011;9662;53.612;9.914;2022-09-27T15:10:49;1.75;;;0.90;;
19057;SDS011;9662;53.612;9.914;2022-09-27T15:13:18;90.38;;;10.63;;
19057;SDS011;9662;53.612;9.914;2022-09-27T15:15:45;42.28;;;4.90;;
19057;SDS011;9662;53.612;9.914;2022-09-27T15:18:28;25.67;;;3.88;;
19057;SDS011;9662;53.612;9.914;2022-09-27T15:20:58;97.22;;;11.52;;
19057;SDS011;9662;53.612;9.914;2022-09-27T15:23:26;16.30;;;2.20;;
19057;SDS011;9662;53.612;9.914;2022-09-27T15:25:59;2.70;;;1.30;;
19057;SDS011;9662;53.612;9.914;2022-09-27T15:28:31;23.60;;;3.10;;
19057;SDS011;9662;53.612;9.914;2022-09-27T15:31:02;75.53;;;8.98;;
19057;SDS011;9662;53.612;9.914;2022-09-27T15:33:31;62.10;;;8.23;;
19057;SDS011;9662;53.612;9.914;2022-09-27T15:36:00;36.20;;;3.75;;
19057;SDS011;9662;53.612;9.914;2022-09-27T15:38:29;21.63;;;3.08;;
19057;SDS011;9662;53.612;9.914;2022-09-27T15:43:45;22.85;;;3.72;;
19057;SDS011;9662;53.612;9.914;2022-09-27T15:46:26;36.50;;;5.60;;
19057;SDS011;9662;53.612;9.914;2022-09-27T15:49:16;4.45;;;1.80;;
19057;SDS011;9662;53.612;9.914;2022-09-27T15:51:48;2.50;;;0.90;;
19057;SDS011;9662;53.612;9.914;2022-09-27T15:54:18;2.50;;;1.20;;
19057;SDS011;9662;53.612;9.914;2022-09-27T15:56:47;1.00;;;1.00;;